createdAt,value
2023-04-23T00:00:54.925Z,10.50
2023-04-23T00:05:58.056Z,10.25
2023-04-23T00:11:02.702Z,9.30
2023-04-23T00:16:05.881Z,8.57
2023-04-23T00:21:09.353Z,9.75
2023-04-23T00:26:11.929Z,9.07
2023-04-23T00:31:14.605Z,6.80
2023-04-23T00:36:17.157Z,8.18
2023-04-23T00:41:19.801Z,9.05
2023-04-23T00:46:22.925Z,9.70
2023-04-23T00:51:26.141Z,9.00
2023-04-23T00:56:29.084Z,8.52
2023-04-23T01:01:33.438Z,8.85
2023-04-23T01:06:36.065Z,7.38
2023-04-23T01:11:42.565Z,9.40
2023-04-23T01:16:45.668Z,8.73
2023-04-23T01:21:50.613Z,7.93
2023-04-23T01:26:53.784Z,7.65
2023-04-23T01:31:57.519Z,7.75
2023-04-23T01:37:00.950Z,7.82
2023-04-23T01:42:04.148Z,7.38
2023-04-23T01:47:07.313Z,7.20
2023-04-23T01:52:10.130Z,6.80
2023-04-23T01:57:13.030Z,7.78
2023-04-23T02:02:16.325Z,7.25
2023-04-23T02:07:19.326Z,6.50
2023-04-23T02:12:22.296Z,7.50
2023-04-23T02:17:25.059Z,7.10
2023-04-23T02:22:28.395Z,6.90
2023-04-23T02:27:31.054Z,6.47
2023-04-23T02:32:33.721Z,6.30
2023-04-23T02:37:37.471Z,6.05
2023-04-23T02:42:41.250Z,6.65
2023-04-23T02:47:45.954Z,6.72
2023-04-23T02:52:49.859Z,5.63
2023-04-23T02:57:52.749Z,5.95
2023-04-23T03:02:55.977Z,6.15
2023-04-23T03:07:58.751Z,6.25
2023-04-23T03:13:02.052Z,6.72
2023-04-23T03:18:08.258Z,8.93
2023-04-23T03:23:12.336Z,8.48
2023-04-23T03:28:15.682Z,7.57
2023-04-23T03:33:18.438Z,7.32
2023-04-23T03:38:21.291Z,8.68
2023-04-23T03:43:26.026Z,7.82
2023-04-23T03:48:54.975Z,7.22
2023-04-23T03:54:02.545Z,6.95
2023-04-23T03:59:11.184Z,7.22
2023-04-23T04:04:14.470Z,9.27
2023-04-23T04:09:17.376Z,8.43
2023-04-23T04:14:21.033Z,11.63
2023-04-23T04:19:23.938Z,14.68
2023-04-23T04:24:27.533Z,14.10
2023-04-23T04:29:31.241Z,13.07
2023-04-23T04:34:33.884Z,14.43
2023-04-23T04:39:36.658Z,12.80
2023-04-23T04:44:39.442Z,13.07
2023-04-23T04:49:42.224Z,12.18
2023-04-23T04:54:45.033Z,12.63
2023-04-23T04:59:47.824Z,13.27
2023-04-23T05:04:50.502Z,11.63
2023-04-23T05:09:55.570Z,10.98
2023-04-23T05:14:58.188Z,9.60
2023-04-23T05:20:00.873Z,6.07
2023-04-23T05:25:04.392Z,4.97
2023-04-23T05:30:09.612Z,5.72
2023-04-23T05:35:12.426Z,5.90
2023-04-23T05:40:15.143Z,6.00
2023-04-23T05:45:17.825Z,6.35
2023-04-23T05:50:21.370Z,6.30
2023-04-23T05:55:24.139Z,6.15
2023-04-23T06:00:27.042Z,7.32
2023-04-23T06:05:29.992Z,7.55
2023-04-23T06:10:32.814Z,8.05
2023-04-23T06:15:35.439Z,8.15
2023-04-23T06:20:38.258Z,8.20
2023-04-23T06:25:40.940Z,9.05
2023-04-23T06:30:43.523Z,9.38
2023-04-23T06:35:47.008Z,9.05
2023-04-23T06:40:49.889Z,9.43
2023-04-23T06:45:52.528Z,9.05
2023-04-23T06:50:55.392Z,8.07
2023-04-23T06:55:58.000Z,7.60
2023-04-23T07:01:04.367Z,8.30
2023-04-23T07:06:10.410Z,8.13
2023-04-23T07:11:13.134Z,8.50
2023-04-23T07:16:15.806Z,6.40
2023-04-23T07:21:18.421Z,6.03
2023-04-23T07:26:21.300Z,5.95
2023-04-23T07:31:24.043Z,5.90
2023-04-23T07:36:28.976Z,5.45
2023-04-23T07:41:32.445Z,4.78
2023-04-23T07:46:35.041Z,5.35
2023-04-23T07:51:38.074Z,4.50
2023-04-23T07:56:43.115Z,3.95
2023-04-23T08:01:46.706Z,2.88
2023-04-23T08:06:49.501Z,2.22
2023-04-23T08:11:52.693Z,1.55
2023-04-23T08:16:55.732Z,2.40
2023-04-23T08:22:01.247Z,1.70
2023-04-23T08:27:03.977Z,1.00
2023-04-23T08:32:06.706Z,0.90
2023-04-23T08:37:16.546Z,1.50
2023-04-23T08:42:35.108Z,1.50
2023-04-23T08:47:45.097Z,1.70
2023-04-23T08:52:52.759Z,1.50
2023-04-23T08:57:55.875Z,1.80
2023-04-23T09:03:03.034Z,1.80
2023-04-23T09:08:10.624Z,1.77
2023-04-23T09:13:16.822Z,1.75
2023-04-23T09:18:20.397Z,2.28
2023-04-23T09:23:23.644Z,1.70
2023-04-23T09:28:38.856Z,1.83
2023-04-23T09:33:41.698Z,1.70
2023-04-23T09:38:44.381Z,1.35
2023-04-23T09:43:48.731Z,1.90
2023-04-23T09:48:52.768Z,1.83
2023-04-23T09:53:55.327Z,1.92
2023-04-23T09:58:57.883Z,1.27
2023-04-23T10:04:00.829Z,1.27
2023-04-23T10:09:04.147Z,1.35
2023-04-23T10:14:10.529Z,1.75
2023-04-23T10:19:21.166Z,1.40
2023-04-23T10:24:30.435Z,1.60
2023-04-23T10:29:35.270Z,1.40
2023-04-23T10:34:40.658Z,1.75
2023-04-23T10:39:45.164Z,2.13
2023-04-23T10:49:53.968Z,1.77
2023-04-23T10:55:02.306Z,4.93
2023-04-23T11:00:06.724Z,1.95
2023-04-23T11:05:12.508Z,2.60
2023-04-23T11:10:15.836Z,1.80
2023-04-23T11:15:19.543Z,2.42
2023-04-23T11:20:24.296Z,2.40
2023-04-23T11:25:29.005Z,1.85
2023-04-23T11:30:32.148Z,2.17
2023-04-23T11:35:40.694Z,2.08
2023-04-23T11:40:46.911Z,2.20
2023-04-23T11:45:49.620Z,5.10
2023-04-23T11:50:52.905Z,4.22
2023-04-23T11:55:55.418Z,2.30
2023-04-23T12:00:59.773Z,2.20
2023-04-23T12:06:02.536Z,2.80
2023-04-23T12:11:06.779Z,2.33
2023-04-23T12:16:10.974Z,2.10
2023-04-23T12:21:14.916Z,2.60
2023-04-23T12:26:21.435Z,2.22
2023-04-23T12:31:26.450Z,2.10
2023-04-23T12:36:32.652Z,3.10
2023-04-23T12:41:35.265Z,1.75
2023-04-23T12:46:37.841Z,2.05
2023-04-23T12:51:40.504Z,1.65
2023-04-23T12:56:43.249Z,2.00
2023-04-23T13:01:46.025Z,2.00
2023-04-23T13:06:48.966Z,2.03
2023-04-23T13:11:51.881Z,2.65
2023-04-23T13:16:54.468Z,2.25
2023-04-23T13:21:57.194Z,2.20
2023-04-23T13:27:01.826Z,2.13
2023-04-23T13:32:06.397Z,2.10
2023-04-23T13:37:09.417Z,2.30
2023-04-23T13:42:12.069Z,2.78
2023-04-23T13:47:14.617Z,2.40
2023-04-23T13:52:17.412Z,2.58
2023-04-23T13:57:20.248Z,2.55
2023-04-23T14:02:24.298Z,2.80
2023-04-23T14:07:27.059Z,2.50
2023-04-23T14:12:29.803Z,2.60
2023-04-23T14:17:32.431Z,3.10
2023-04-23T14:22:35.603Z,2.30
2023-04-23T14:27:44.526Z,2.40
2023-04-23T14:32:50.021Z,2.33
2023-04-23T14:37:53.301Z,2.15
2023-04-23T14:43:01.881Z,2.55
2023-04-23T14:48:11.215Z,2.38
2023-04-23T14:53:13.929Z,2.10
2023-04-23T14:58:16.507Z,1.92
2023-04-23T15:03:19.478Z,1.50
2023-04-23T15:08:22.198Z,2.80
2023-04-23T15:13:46.886Z,2.05
2023-04-23T15:18:49.468Z,2.20
2023-04-23T15:23:54.205Z,2.42
2023-04-23T15:28:58.687Z,2.40
2023-04-23T15:34:01.753Z,2.90
2023-04-23T15:39:04.573Z,1.80
2023-04-23T15:44:10.916Z,3.25
2023-04-23T15:49:13.811Z,2.65
2023-04-23T15:54:16.524Z,2.00
2023-04-23T15:59:19.096Z,2.53
2023-04-23T16:04:22.351Z,3.10
2023-04-23T16:09:25.293Z,3.20
2023-04-23T16:14:27.996Z,3.83
2023-04-23T16:19:30.790Z,4.32
2023-04-23T16:24:34.204Z,6.15
2023-04-23T16:29:38.040Z,5.85
2023-04-23T16:34:41.101Z,6.53
2023-04-23T16:39:44.101Z,5.40
2023-04-23T16:44:46.973Z,4.65
2023-04-23T16:49:49.572Z,4.63
2023-04-23T16:54:52.515Z,4.15
2023-04-23T16:59:55.051Z,6.03
2023-04-23T17:04:58.195Z,4.97
2023-04-23T17:10:01.026Z,6.35
2023-04-23T17:15:06.831Z,11.50
2023-04-23T17:20:09.602Z,6.03
2023-04-23T17:25:12.217Z,7.20
2023-04-23T17:30:15.040Z,7.78
2023-04-23T17:35:17.690Z,5.63
2023-04-23T17:40:20.884Z,5.20
2023-04-23T17:45:23.940Z,5.32
2023-04-23T17:50:28.394Z,5.45
2023-04-23T17:55:33.074Z,5.22
2023-04-23T18:00:37.286Z,6.38
2023-04-23T18:05:40.252Z,4.90
2023-04-23T18:10:45.435Z,5.75
2023-04-23T18:15:50.998Z,6.13
2023-04-23T18:20:53.624Z,5.07
2023-04-23T18:25:56.983Z,5.38
2023-04-23T18:31:02.715Z,5.95
2023-04-23T18:36:24.902Z,5.63
2023-04-23T18:41:30.756Z,7.05
2023-04-23T18:46:33.827Z,6.88
2023-04-23T18:51:45.881Z,6.60
2023-04-23T19:01:51.817Z,8.50
2023-04-23T19:06:54.382Z,9.30
2023-04-23T19:11:57.388Z,7.57
2023-04-23T19:17:00.028Z,7.22
2023-04-23T19:22:03.951Z,8.25
2023-04-23T19:27:07.224Z,7.82
2023-04-23T19:32:09.786Z,8.25
2023-04-23T19:37:12.547Z,7.85
2023-04-23T19:42:15.272Z,7.35
2023-04-23T19:47:18.160Z,8.43
2023-04-23T19:52:23.442Z,8.45
2023-04-23T19:57:26.189Z,8.38
2023-04-23T20:02:29.029Z,9.52
2023-04-23T20:07:31.631Z,7.65
2023-04-23T20:12:36.898Z,6.97
2023-04-23T20:17:40.305Z,8.20
2023-04-23T20:22:42.864Z,8.27
2023-04-23T20:27:45.576Z,6.82
2023-04-23T20:32:48.346Z,7.00
2023-04-23T20:37:52.901Z,7.30
2023-04-23T20:42:58.578Z,7.78
2023-04-23T20:48:02.630Z,6.75
2023-04-23T20:53:05.633Z,5.97
2023-04-23T20:58:08.289Z,6.57
2023-04-23T21:03:11.403Z,5.85
2023-04-23T21:08:14.385Z,6.47
2023-04-23T21:13:17.225Z,6.18
2023-04-23T21:18:20.023Z,6.53
2023-04-23T21:23:22.557Z,5.88
2023-04-23T21:28:25.222Z,6.55
2023-04-23T21:33:27.798Z,6.80
2023-04-23T21:38:30.375Z,6.57
2023-04-23T21:43:35.600Z,7.05
2023-04-23T21:48:38.307Z,6.90
2023-04-23T21:53:41.065Z,7.00
2023-04-23T21:58:44.843Z,6.70
2023-04-23T22:03:48.007Z,6.18
2023-04-23T22:08:52.413Z,6.07
2023-04-23T22:13:55.006Z,6.55
2023-04-23T22:18:58.003Z,5.68
2023-04-23T22:24:00.787Z,5.57
2023-04-23T22:29:04.111Z,5.63
2023-04-23T22:34:06.782Z,4.90
2023-04-23T22:39:10.829Z,5.88
2023-04-23T22:44:13.511Z,4.70
2023-04-23T22:49:18.388Z,5.22
2023-04-23T22:54:21.177Z,4.93
2023-04-23T22:59:24.607Z,4.88
2023-04-23T23:04:27.361Z,4.88
2023-04-23T23:09:29.998Z,5.20
2023-04-23T23:14:34.038Z,5.05
2023-04-23T23:19:36.666Z,5.55
2023-04-23T23:24:39.380Z,4.90
2023-04-23T23:29:45.268Z,6.00
2023-04-23T23:34:47.953Z,6.45
2023-04-23T23:39:50.584Z,6.97
2023-04-23T23:44:53.138Z,6.95
2023-04-23T23:49:55.935Z,6.53
2023-04-23T23:54:58.701Z,6.47
